sensor_id;sensor_type;location;lat;lon;timestamp;P1;durP1;ratioP1;P2;durP2;ratioP2
7571;SDS011;3827;49.928;8.548;2024-02-21T00:00:33;32.47;;;17.40;;
7571;SDS011;3827;49.928;8.548;2024-02-21T00:03:00;32.75;;;16.90;;
7571;SDS011;3827;49.928;8.548;2024-02-21T00:05:27;27.25;;;14.77;;
7571;SDS011;3827;49.928;8.548;2024-02-21T00:07:55;28.52;;;14.55;;
7571;SDS011;3827;49.928;8.548;2024-02-21T00:10:22;26.50;;;14.70;;
7571;SDS011;3827;49.928;8.548;2024-02-21T00:12:50;30.52;;;16.63;;
7571;SDS011;3827;49.928;8.548;2024-02-21T00:15:16;23.00;;;13.43;;
7571;SDS011;3827;49.928;8.548;2024-02-21T00:17:43;20.63;;;11.93;;
7571;SDS011;3827;49.928;8.548;2024-02-21T00:20:10;23.88;;;12.57;;
7571;SDS011;3827;49.928;8.548;2024-02-21T00:22:37;19.30;;;11.52;;
7571;SDS011;3827;49.928;8.548;2024-02-21T00:25:06;23.77;;;12.63;;
7571;SDS011;3827;49.928;8.548;2024-02-21T00:27:33;22.60;;;12.27;;
7571;SDS011;3827;49.928;8.548;2024-02-21T00:30:00;19.90;;;11.70;;
7571;SDS011;3827;49.928;8.548;2024-02-21T00:32:26;21.27;;;11.63;;
7571;SDS011;3827;49.928;8.548;2024-02-21T00:34:53;17.23;;;10.67;;
7571;SDS011;3827;49.928;8.548;2024-02-21T00:37:20;19.02;;;11.05;;
7571;SDS011;3827;49.928;8.548;2024-02-21T00:39:47;20.50;;;11.05;;
7571;SDS011;3827;49.928;8.548;2024-02-21T00:42:15;18.02;;;9.52;;
7571;SDS011;3827;49.928;8.548;2024-02-21T00:44:41;16.02;;;9.35;;
7571;SDS011;3827;49.928;8.548;2024-02-21T00:47:10;12.65;;;7.45;;
7571;SDS011;3827;49.928;8.548;2024-02-21T00:49:36;12.68;;;7.80;;
7571;SDS011;3827;49.928;8.548;2024-02-21T00:52:03;13.73;;;7.75;;
7571;SDS011;3827;49.928;8.548;2024-02-21T00:54:30;12.30;;;7.47;;
7571;SDS011;3827;49.928;8.548;2024-02-21T00:56:57;14.60;;;7.95;;
7571;SDS011;3827;49.928;8.548;2024-02-21T00:59:25;14.10;;;7.60;;
7571;SDS011;3827;49.928;8.548;2024-02-21T01:01:51;13.23;;;8.05;;
7571;SDS011;3827;49.928;8.548;2024-02-21T01:04:18;13.63;;;7.80;;
7571;SDS011;3827;49.928;8.548;2024-02-21T01:06:45;13.93;;;8.48;;
7571;SDS011;3827;49.928;8.548;2024-02-21T01:09:12;12.85;;;7.90;;
7571;SDS011;3827;49.928;8.548;2024-02-21T01:11:39;14.73;;;7.95;;
7571;SDS011;3827;49.928;8.548;2024-02-21T01:14:06;15.70;;;8.38;;
7571;SDS011;3827;49.928;8.548;2024-02-21T01:16:34;14.63;;;8.02;;
7571;SDS011;3827;49.928;8.548;2024-02-21T01:19:00;12.23;;;8.00;;
7571;SDS011;3827;49.928;8.548;2024-02-21T01:21:27;13.02;;;7.57;;
7571;SDS011;3827;49.928;8.548;2024-02-21T01:23:54;14.57;;;8.27;;
7571;SDS011;3827;49.928;8.548;2024-02-21T01:26:21;13.52;;;8.05;;
7571;SDS011;3827;49.928;8.548;2024-02-21T01:28:47;14.07;;;7.63;;
7571;SDS011;3827;49.928;8.548;2024-02-21T01:31:14;13.90;;;7.65;;
7571;SDS011;3827;49.928;8.548;2024-02-21T01:33:42;13.05;;;7.75;;
7571;SDS011;3827;49.928;8.548;2024-02-21T01:36:09;12.70;;;7.90;;
7571;SDS011;3827;49.928;8.548;2024-02-21T01:38:39;13.75;;;7.82;;
7571;SDS011;3827;49.928;8.548;2024-02-21T01:41:08;13.55;;;7.90;;
7571;SDS011;3827;49.928;8.548;2024-02-21T01:43:35;12.80;;;7.60;;
7571;SDS011;3827;49.928;8.548;2024-02-21T01:46:02;14.90;;;7.87;;
7571;SDS011;3827;49.928;8.548;2024-02-21T01:48:29;11.10;;;7.32;;
7571;SDS011;3827;49.928;8.548;2024-02-21T01:50:57;15.30;;;7.60;;
7571;SDS011;3827;49.928;8.548;2024-02-21T01:53:27;12.77;;;8.02;;
7571;SDS011;3827;49.928;8.548;2024-02-21T01:55:58;13.32;;;7.93;;
7571;SDS011;3827;49.928;8.548;2024-02-21T01:58:26;12.45;;;7.40;;
7571;SDS011;3827;49.928;8.548;2024-02-21T02:00:54;14.10;;;8.27;;
7571;SDS011;3827;49.928;8.548;2024-02-21T02:03:23;13.38;;;8.60;;
7571;SDS011;3827;49.928;8.548;2024-02-21T02:05:50;13.48;;;8.00;;
7571;SDS011;3827;49.928;8.548;2024-02-21T02:08:19;12.20;;;7.57;;
7571;SDS011;3827;49.928;8.548;2024-02-21T02:10:47;12.95;;;8.27;;
7571;SDS011;3827;49.928;8.548;2024-02-21T02:13:14;13.43;;;8.63;;
7571;SDS011;3827;49.928;8.548;2024-02-21T02:15:41;13.25;;;7.60;;
7571;SDS011;3827;49.928;8.548;2024-02-21T02:18:09;13.70;;;7.97;;
7571;SDS011;3827;49.928;8.548;2024-02-21T02:20:36;12.88;;;7.65;;
7571;SDS011;3827;49.928;8.548;2024-02-21T02:23:05;15.73;;;8.27;;
7571;SDS011;3827;49.928;8.548;2024-02-21T02:25:37;13.95;;;8.63;;
7571;SDS011;3827;49.928;8.548;2024-02-21T02:28:05;13.65;;;7.95;;
7571;SDS011;3827;49.928;8.548;2024-02-21T02:30:33;12.30;;;7.80;;
7571;SDS011;3827;49.928;8.548;2024-02-21T02:33:01;12.43;;;7.73;;
7571;SDS011;3827;49.928;8.548;2024-02-21T02:35:27;11.60;;;7.72;;
7571;SDS011;3827;49.928;8.548;2024-02-21T02:37:54;14.70;;;7.60;;
7571;SDS011;3827;49.928;8.548;2024-02-21T02:40:21;13.05;;;7.57;;
7571;SDS011;3827;49.928;8.548;2024-02-21T02:42:49;10.70;;;7.00;;
7571;SDS011;3827;49.928;8.548;2024-02-21T02:45:16;12.30;;;8.30;;
7571;SDS011;3827;49.928;8.548;2024-02-21T02:47:44;13.55;;;7.50;;
7571;SDS011;3827;49.928;8.548;2024-02-21T02:50:12;13.00;;;7.50;;
7571;SDS011;3827;49.928;8.548;2024-02-21T02:52:39;13.00;;;7.05;;
7571;SDS011;3827;49.928;8.548;2024-02-21T02:55:06;12.37;;;7.27;;
7571;SDS011;3827;49.928;8.548;2024-02-21T02:57:33;13.10;;;7.67;;
7571;SDS011;3827;49.928;8.548;2024-02-21T03:00:01;14.18;;;8.10;;
7571;SDS011;3827;49.928;8.548;2024-02-21T03:02:28;14.68;;;7.60;;
7571;SDS011;3827;49.928;8.548;2024-02-21T03:04:56;13.48;;;7.63;;
7571;SDS011;3827;49.928;8.548;2024-02-21T03:07:23;14.18;;;7.22;;
7571;SDS011;3827;49.928;8.548;2024-02-21T03:09:51;17.27;;;7.85;;
7571;SDS011;3827;49.928;8.548;2024-02-21T03:12:18;12.60;;;7.05;;
7571;SDS011;3827;49.928;8.548;2024-02-21T03:14:49;17.88;;;7.78;;
7571;SDS011;3827;49.928;8.548;2024-02-21T03:17:17;15.25;;;7.57;;
7571;SDS011;3827;49.928;8.548;2024-02-21T03:19:44;14.57;;;7.20;;
7571;SDS011;3827;49.928;8.548;2024-02-21T03:22:11;12.80;;;7.15;;
7571;SDS011;3827;49.928;8.548;2024-02-21T03:24:37;12.60;;;7.72;;
7571;SDS011;3827;49.928;8.548;2024-02-21T03:27:04;12.00;;;7.00;;
7571;SDS011;3827;49.928;8.548;2024-02-21T03:29:31;14.45;;;7.15;;
7571;SDS011;3827;49.928;8.548;2024-02-21T03:31:58;14.27;;;7.57;;
7571;SDS011;3827;49.928;8.548;2024-02-21T03:34:26;13.63;;;7.05;;
7571;SDS011;3827;49.928;8.548;2024-02-21T03:36:52;14.15;;;7.43;;
7571;SDS011;3827;49.928;8.548;2024-02-21T03:39:19;13.93;;;7.53;;
7571;SDS011;3827;49.928;8.548;2024-02-21T03:41:46;13.02;;;7.40;;
7571;SDS011;3827;49.928;8.548;2024-02-21T03:44:13;14.82;;;7.78;;
7571;SDS011;3827;49.928;8.548;2024-02-21T03:46:40;12.85;;;6.82;;
7571;SDS011;3827;49.928;8.548;2024-02-21T03:49:07;12.68;;;6.82;;
7571;SDS011;3827;49.928;8.548;2024-02-21T03:51:35;12.23;;;6.80;;
7571;SDS011;3827;49.928;8.548;2024-02-21T03:54:02;11.85;;;6.82;;
7571;SDS011;3827;49.928;8.548;2024-02-21T03:56:29;13.80;;;7.32;;
7571;SDS011;3827;49.928;8.548;2024-02-21T03:58:56;12.88;;;7.20;;
7571;SDS011;3827;49.928;8.548;2024-02-21T04:01:23;13.50;;;7.57;;
7571;SDS011;3827;49.928;8.548;2024-02-21T04:03:50;14.50;;;7.03;;
7571;SDS011;3827;49.928;8.548;2024-02-21T04:06:16;13.38;;;7.03;;
7571;SDS011;3827;49.928;8.548;2024-02-21T04:08:45;15.23;;;8.18;;
7571;SDS011;3827;49.928;8.548;2024-02-21T04:11:12;11.83;;;6.47;;
7571;SDS011;3827;49.928;8.548;2024-02-21T04:13:38;12.73;;;7.68;;
7571;SDS011;3827;49.928;8.548;2024-02-21T04:16:05;13.00;;;6.70;;
7571;SDS011;3827;49.928;8.548;2024-02-21T04:18:32;10.10;;;6.13;;
7571;SDS011;3827;49.928;8.548;2024-02-21T04:20:59;13.32;;;6.88;;
7571;SDS011;3827;49.928;8.548;2024-02-21T04:23:25;12.63;;;6.88;;
7571;SDS011;3827;49.928;8.548;2024-02-21T04:25:53;15.15;;;6.82;;
7571;SDS011;3827;49.928;8.548;2024-02-21T04:28:20;11.45;;;6.53;;
7571;SDS011;3827;49.928;8.548;2024-02-21T04:30:47;10.60;;;6.37;;
7571;SDS011;3827;49.928;8.548;2024-02-21T04:33:14;10.35;;;6.47;;
7571;SDS011;3827;49.928;8.548;2024-02-21T04:35:40;12.98;;;6.22;;
7571;SDS011;3827;49.928;8.548;2024-02-21T04:38:07;14.00;;;6.63;;
7571;SDS011;3827;49.928;8.548;2024-02-21T04:40:34;15.90;;;6.60;;
7571;SDS011;3827;49.928;8.548;2024-02-21T04:43:02;13.43;;;6.30;;
7571;SDS011;3827;49.928;8.548;2024-02-21T04:45:29;15.23;;;5.82;;
7571;SDS011;3827;49.928;8.548;2024-02-21T04:47:56;12.43;;;5.85;;
7571;SDS011;3827;49.928;8.548;2024-02-21T04:50:23;12.50;;;6.23;;
7571;SDS011;3827;49.928;8.548;2024-02-21T04:52:50;13.73;;;6.15;;
7571;SDS011;3827;49.928;8.548;2024-02-21T04:55:16;12.57;;;6.10;;
7571;SDS011;3827;49.928;8.548;2024-02-21T04:57:43;12.60;;;6.03;;
7571;SDS011;3827;49.928;8.548;2024-02-21T05:00:12;8.25;;;5.80;;
7571;SDS011;3827;49.928;8.548;2024-02-21T05:02:39;13.90;;;6.55;;
7571;SDS011;3827;49.928;8.548;2024-02-21T05:05:06;13.05;;;7.82;;
7571;SDS011;3827;49.928;8.548;2024-02-21T05:07:34;12.00;;;7.07;;
7571;SDS011;3827;49.928;8.548;2024-02-21T05:10:01;11.97;;;7.33;;
7571;SDS011;3827;49.928;8.548;2024-02-21T05:12:28;13.63;;;6.45;;
7571;SDS011;3827;49.928;8.548;2024-02-21T05:14:55;14.88;;;7.20;;
7571;SDS011;3827;49.928;8.548;2024-02-21T05:17:23;16.92;;;13.07;;
7571;SDS011;3827;49.928;8.548;2024-02-21T05:19:50;16.98;;;9.25;;
7571;SDS011;3827;49.928;8.548;2024-02-21T05:22:17;14.68;;;7.25;;
7571;SDS011;3827;49.928;8.548;2024-02-21T05:24:44;12.20;;;6.88;;
7571;SDS011;3827;49.928;8.548;2024-02-21T05:27:10;10.00;;;6.20;;
7571;SDS011;3827;49.928;8.548;2024-02-21T05:29:37;13.57;;;6.73;;
7571;SDS011;3827;49.928;8.548;2024-02-21T05:32:04;12.68;;;6.25;;
7571;SDS011;3827;49.928;8.548;2024-02-21T05:34:32;11.70;;;7.45;;
7571;SDS011;3827;49.928;8.548;2024-02-21T05:36:59;13.40;;;6.97;;
7571;SDS011;3827;49.928;8.548;2024-02-21T05:39:26;12.45;;;7.07;;
7571;SDS011;3827;49.928;8.548;2024-02-21T05:41:54;11.93;;;7.47;;
7571;SDS011;3827;49.928;8.548;2024-02-21T05:44:21;12.38;;;6.97;;
7571;SDS011;3827;49.928;8.548;2024-02-21T05:46:48;13.88;;;7.13;;
7571;SDS011;3827;49.928;8.548;2024-02-21T05:49:14;11.87;;;7.13;;
7571;SDS011;3827;49.928;8.548;2024-02-21T05:51:42;11.30;;;6.95;;
7571;SDS011;3827;49.928;8.548;2024-02-21T05:54:10;14.18;;;7.97;;
7571;SDS011;3827;49.928;8.548;2024-02-21T05:56:36;11.20;;;6.85;;
7571;SDS011;3827;49.928;8.548;2024-02-21T05:59:03;15.57;;;7.80;;
7571;SDS011;3827;49.928;8.548;2024-02-21T06:01:30;13.33;;;7.40;;
7571;SDS011;3827;49.928;8.548;2024-02-21T06:03:57;12.98;;;7.00;;
7571;SDS011;3827;49.928;8.548;2024-02-21T06:06:24;10.00;;;6.88;;
7571;SDS011;3827;49.928;8.548;2024-02-21T06:08:52;10.77;;;7.18;;
7571;SDS011;3827;49.928;8.548;2024-02-21T06:11:19;17.47;;;8.60;;
7571;SDS011;3827;49.928;8.548;2024-02-21T06:13:46;21.52;;;12.05;;
7571;SDS011;3827;49.928;8.548;2024-02-21T06:16:13;22.90;;;15.45;;
7571;SDS011;3827;49.928;8.548;2024-02-21T06:18:40;14.85;;;11.13;;
7571;SDS011;3827;49.928;8.548;2024-02-21T06:21:06;14.80;;;10.50;;
7571;SDS011;3827;49.928;8.548;2024-02-21T06:23:33;16.20;;;9.85;;
7571;SDS011;3827;49.928;8.548;2024-02-21T06:26:04;12.40;;;8.23;;
7571;SDS011;3827;49.928;8.548;2024-02-21T06:28:31;13.65;;;7.65;;
7571;SDS011;3827;49.928;8.548;2024-02-21T06:30:58;11.20;;;6.55;;
7571;SDS011;3827;49.928;8.548;2024-02-21T06:33:24;12.63;;;7.03;;
7571;SDS011;3827;49.928;8.548;2024-02-21T06:35:51;12.27;;;7.78;;
7571;SDS011;3827;49.928;8.548;2024-02-21T06:38:19;12.10;;;7.35;;
7571;SDS011;3827;49.928;8.548;2024-02-21T06:40:45;14.60;;;6.90;;
7571;SDS011;3827;49.928;8.548;2024-02-21T06:43:17;9.65;;;5.65;;
7571;SDS011;3827;49.928;8.548;2024-02-21T06:45:45;8.90;;;5.53;;
7571;SDS011;3827;49.928;8.548;2024-02-21T06:48:15;10.52;;;6.15;;
7571;SDS011;3827;49.928;8.548;2024-02-21T06:50:43;10.60;;;6.70;;
7571;SDS011;3827;49.928;8.548;2024-02-21T06:53:09;12.20;;;7.00;;
7571;SDS011;3827;49.928;8.548;2024-02-21T06:55:36;12.38;;;7.10;;
7571;SDS011;3827;49.928;8.548;2024-02-21T06:58:03;12.17;;;7.17;;
7571;SDS011;3827;49.928;8.548;2024-02-21T07:00:31;12.35;;;7.10;;
7571;SDS011;3827;49.928;8.548;2024-02-21T07:02:58;14.10;;;6.47;;
7571;SDS011;3827;49.928;8.548;2024-02-21T07:05:25;19.02;;;10.93;;
7571;SDS011;3827;49.928;8.548;2024-02-21T07:07:51;17.60;;;12.18;;
7571;SDS011;3827;49.928;8.548;2024-02-21T07:10:18;14.68;;;8.75;;
7571;SDS011;3827;49.928;8.548;2024-02-21T07:12:45;17.48;;;11.25;;
7571;SDS011;3827;49.928;8.548;2024-02-21T07:15:11;13.82;;;8.77;;
7571;SDS011;3827;49.928;8.548;2024-02-21T07:17:40;16.27;;;11.30;;
7571;SDS011;3827;49.928;8.548;2024-02-21T07:20:07;15.83;;;12.23;;
7571;SDS011;3827;49.928;8.548;2024-02-21T07:22:34;15.27;;;9.50;;
7571;SDS011;3827;49.928;8.548;2024-02-21T07:25:01;14.57;;;8.80;;
7571;SDS011;3827;49.928;8.548;2024-02-21T07:27:28;14.27;;;9.45;;
7571;SDS011;3827;49.928;8.548;2024-02-21T07:29:56;15.55;;;10.07;;
7571;SDS011;3827;49.928;8.548;2024-02-21T07:32:23;19.53;;;13.67;;
7571;SDS011;3827;49.928;8.548;2024-02-21T07:34:51;15.35;;;11.18;;
7571;SDS011;3827;49.928;8.548;2024-02-21T07:37:18;17.58;;;12.57;;
7571;SDS011;3827;49.928;8.548;2024-02-21T07:39:44;11.93;;;6.50;;
7571;SDS011;3827;49.928;8.548;2024-02-21T07:42:11;9.30;;;6.72;;
7571;SDS011;3827;49.928;8.548;2024-02-21T07:44:38;12.00;;;6.88;;
7571;SDS011;3827;49.928;8.548;2024-02-21T07:47:05;12.88;;;7.43;;
7571;SDS011;3827;49.928;8.548;2024-02-21T07:49:32;12.35;;;6.18;;
7571;SDS011;3827;49.928;8.548;2024-02-21T07:52:01;12.07;;;5.93;;
7571;SDS011;3827;49.928;8.548;2024-02-21T07:54:29;10.65;;;6.13;;
7571;SDS011;3827;49.928;8.548;2024-02-21T07:56:56;11.43;;;5.55;;
7571;SDS011;3827;49.928;8.548;2024-02-21T07:59:22;10.50;;;5.53;;
7571;SDS011;3827;49.928;8.548;2024-02-21T08:01:49;9.93;;;5.57;;
7571;SDS011;3827;49.928;8.548;2024-02-21T08:04:16;13.27;;;5.95;;
7571;SDS011;3827;49.928;8.548;2024-02-21T08:06:51;12.38;;;6.32;;
7571;SDS011;3827;49.928;8.548;2024-02-21T08:09:22;20.65;;;7.65;;
7571;SDS011;3827;49.928;8.548;2024-02-21T08:11:48;16.15;;;7.05;;
7571;SDS011;3827;49.928;8.548;2024-02-21T08:14:15;14.35;;;6.30;;
7571;SDS011;3827;49.928;8.548;2024-02-21T08:16:43;13.00;;;5.57;;
7571;SDS011;3827;49.928;8.548;2024-02-21T08:19:10;10.90;;;5.00;;
7571;SDS011;3827;49.928;8.548;2024-02-21T08:21:37;9.37;;;4.80;;
7571;SDS011;3827;49.928;8.548;2024-02-21T08:24:04;10.02;;;5.07;;
7571;SDS011;3827;49.928;8.548;2024-02-21T08:26:32;12.45;;;5.18;;
7571;SDS011;3827;49.928;8.548;2024-02-21T08:29:01;10.10;;;5.50;;
7571;SDS011;3827;49.928;8.548;2024-02-21T08:31:28;12.32;;;5.20;;
7571;SDS011;3827;49.928;8.548;2024-02-21T08:33:56;11.60;;;5.05;;
7571;SDS011;3827;49.928;8.548;2024-02-21T08:36:27;11.20;;;5.13;;
7571;SDS011;3827;49.928;8.548;2024-02-21T08:38:55;10.13;;;4.55;;
7571;SDS011;3827;49.928;8.548;2024-02-21T08:41:22;10.57;;;4.97;;
7571;SDS011;3827;49.928;8.548;2024-02-21T08:43:51;8.55;;;5.00;;
7571;SDS011;3827;49.928;8.548;2024-02-21T08:46:18;10.82;;;5.30;;
7571;SDS011;3827;49.928;8.548;2024-02-21T08:48:45;9.80;;;5.05;;
7571;SDS011;3827;49.928;8.548;2024-02-21T08:51:12;8.30;;;4.55;;
7571;SDS011;3827;49.928;8.548;2024-02-21T08:53:39;10.65;;;4.38;;
7571;SDS011;3827;49.928;8.548;2024-02-21T08:56:06;8.15;;;4.53;;
7571;SDS011;3827;49.928;8.548;2024-02-21T08:58:34;7.57;;;4.82;;
7571;SDS011;3827;49.928;8.548;2024-02-21T09:01:04;10.55;;;5.30;;
7571;SDS011;3827;49.928;8.548;2024-02-21T09:03:31;8.75;;;5.28;;
7571;SDS011;3827;49.928;8.548;2024-02-21T09:05:58;10.25;;;5.07;;
7571;SDS011;3827;49.928;8.548;2024-02-21T09:08:25;9.77;;;4.67;;
7571;SDS011;3827;49.928;8.548;2024-02-21T09:10:52;9.60;;;4.60;;
7571;SDS011;3827;49.928;8.548;2024-02-21T09:13:19;7.80;;;4.32;;
7571;SDS011;3827;49.928;8.548;2024-02-21T09:15:46;8.98;;;4.10;;
7571;SDS011;3827;49.928;8.548;2024-02-21T09:18:15;9.52;;;4.55;;
7571;SDS011;3827;49.928;8.548;2024-02-21T09:20:42;8.77;;;4.35;;
7571;SDS011;3827;49.928;8.548;2024-02-21T09:23:09;8.88;;;4.03;;
7571;SDS011;3827;49.928;8.548;2024-02-21T09:25:36;9.30;;;4.55;;
7571;SDS011;3827;49.928;8.548;2024-02-21T09:28:03;9.25;;;4.30;;
7571;SDS011;3827;49.928;8.548;2024-02-21T09:30:31;8.73;;;4.20;;
7571;SDS011;3827;49.928;8.548;2024-02-21T09:32:58;7.28;;;4.40;;
7571;SDS011;3827;49.928;8.548;2024-02-21T09:35:27;8.00;;;4.20;;
7571;SDS011;3827;49.928;8.548;2024-02-21T09:37:54;8.23;;;4.75;;
7571;SDS011;3827;49.928;8.548;2024-02-21T09:40:21;8.83;;;4.47;;
7571;SDS011;3827;49.928;8.548;2024-02-21T09:42:49;8.38;;;4.43;;
7571;SDS011;3827;49.928;8.548;2024-02-21T09:45:25;8.68;;;4.18;;
7571;SDS011;3827;49.928;8.548;2024-02-21T09:47:56;10.70;;;4.22;;
7571;SDS011;3827;49.928;8.548;2024-02-21T09:50:47;8.77;;;3.72;;
7571;SDS011;3827;49.928;8.548;2024-02-21T09:53:16;5.78;;;3.40;;
7571;SDS011;3827;49.928;8.548;2024-02-21T09:55:44;8.75;;;4.05;;
7571;SDS011;3827;49.928;8.548;2024-02-21T09:58:12;10.95;;;4.07;;
7571;SDS011;3827;49.928;8.548;2024-02-21T10:00:40;7.85;;;4.25;;
7571;SDS011;3827;49.928;8.548;2024-02-21T10:03:07;9.18;;;3.70;;
7571;SDS011;3827;49.928;8.548;2024-02-21T10:05:35;7.55;;;3.67;;
7571;SDS011;3827;49.928;8.548;2024-02-21T10:08:03;8.40;;;3.95;;
7571;SDS011;3827;49.928;8.548;2024-02-21T10:10:40;10.32;;;4.20;;
7571;SDS011;3827;49.928;8.548;2024-02-21T10:13:09;9.23;;;3.97;;
7571;SDS011;3827;49.928;8.548;2024-02-21T10:15:36;10.00;;;4.20;;
7571;SDS011;3827;49.928;8.548;2024-02-21T10:18:03;7.25;;;3.88;;
7571;SDS011;3827;49.928;8.548;2024-02-21T10:20:31;7.30;;;3.90;;
7571;SDS011;3827;49.928;8.548;2024-02-21T10:23:02;9.43;;;3.80;;
7571;SDS011;3827;49.928;8.548;2024-02-21T10:25:34;8.05;;;3.85;;
7571;SDS011;3827;49.928;8.548;2024-02-21T10:28:03;7.45;;;3.33;;
7571;SDS011;3827;49.928;8.548;2024-02-21T10:30:30;7.53;;;3.33;;
7571;SDS011;3827;49.928;8.548;2024-02-21T10:32:57;7.25;;;3.70;;
7571;SDS011;3827;49.928;8.548;2024-02-21T10:35:27;6.82;;;3.33;;
7571;SDS011;3827;49.928;8.548;2024-02-21T10:37:55;7.63;;;3.85;;
7571;SDS011;3827;49.928;8.548;2024-02-21T10:40:24;7.15;;;3.40;;
7571;SDS011;3827;49.928;8.548;2024-02-21T10:42:54;7.68;;;3.33;;
7571;SDS011;3827;49.928;8.548;2024-02-21T10:45:25;8.55;;;3.58;;
7571;SDS011;3827;49.928;8.548;2024-02-21T10:48:00;9.25;;;4.18;;
7571;SDS011;3827;49.928;8.548;2024-02-21T10:50:38;10.02;;;4.07;;
7571;SDS011;3827;49.928;8.548;2024-02-21T10:53:15;7.72;;;3.85;;
7571;SDS011;3827;49.928;8.548;2024-02-21T10:55:56;8.80;;;3.30;;
7571;SDS011;3827;49.928;8.548;2024-02-21T10:58:30;6.68;;;3.45;;
7571;SDS011;3827;49.928;8.548;2024-02-21T11:00:58;8.27;;;3.33;;
7571;SDS011;3827;49.928;8.548;2024-02-21T11:03:25;5.40;;;3.00;;
7571;SDS011;3827;49.928;8.548;2024-02-21T11:05:52;9.57;;;3.75;;
7571;SDS011;3827;49.928;8.548;2024-02-21T11:08:19;9.38;;;3.40;;
7571;SDS011;3827;49.928;8.548;2024-02-21T11:10:46;7.50;;;3.58;;
7571;SDS011;3827;49.928;8.548;2024-02-21T11:13:14;5.68;;;2.80;;
7571;SDS011;3827;49.928;8.548;2024-02-21T11:15:41;6.40;;;3.10;;
7571;SDS011;3827;49.928;8.548;2024-02-21T11:18:08;5.47;;;3.22;;
7571;SDS011;3827;49.928;8.548;2024-02-21T11:20:35;8.90;;;3.55;;
7571;SDS011;3827;49.928;8.548;2024-02-21T11:23:03;5.35;;;3.30;;
7571;SDS011;3827;49.928;8.548;2024-02-21T11:25:30;7.88;;;3.28;;
7571;SDS011;3827;49.928;8.548;2024-02-21T11:28:01;9.03;;;3.73;;
7571;SDS011;3827;49.928;8.548;2024-02-21T11:30:31;7.88;;;3.47;;
7571;SDS011;3827;49.928;8.548;2024-02-21T11:32:59;7.82;;;3.03;;
7571;SDS011;3827;49.928;8.548;2024-02-21T11:35:30;5.85;;;3.33;;
7571;SDS011;3827;49.928;8.548;2024-02-21T11:37:57;7.22;;;3.70;;
7571;SDS011;3827;49.928;8.548;2024-02-21T11:40:34;7.30;;;3.28;;
7571;SDS011;3827;49.928;8.548;2024-02-21T11:43:01;6.93;;;3.30;;
7571;SDS011;3827;49.928;8.548;2024-02-21T11:45:28;6.63;;;3.05;;
7571;SDS011;3827;49.928;8.548;2024-02-21T11:47:58;6.90;;;3.00;;
7571;SDS011;3827;49.928;8.548;2024-02-21T11:50:28;7.40;;;3.10;;
7571;SDS011;3827;49.928;8.548;2024-02-21T11:52:55;7.53;;;2.72;;
7571;SDS011;3827;49.928;8.548;2024-02-21T11:55:22;5.20;;;3.00;;
7571;SDS011;3827;49.928;8.548;2024-02-21T11:57:49;6.97;;;3.10;;
7571;SDS011;3827;49.928;8.548;2024-02-21T12:00:16;6.72;;;2.92;;
7571;SDS011;3827;49.928;8.548;2024-02-21T12:02:45;8.32;;;3.47;;
7571;SDS011;3827;49.928;8.548;2024-02-21T12:05:13;7.38;;;3.38;;
7571;SDS011;3827;49.928;8.548;2024-02-21T12:07:40;5.47;;;3.50;;
7571;SDS011;3827;49.928;8.548;2024-02-21T12:10:08;8.48;;;3.03;;
7571;SDS011;3827;49.928;8.548;2024-02-21T12:12:36;7.78;;;3.65;;
7571;SDS011;3827;49.928;8.548;2024-02-21T12:15:04;4.97;;;3.13;;
7571;SDS011;3827;49.928;8.548;2024-02-21T12:17:32;7.28;;;2.92;;
7571;SDS011;3827;49.928;8.548;2024-02-21T12:20:00;6.40;;;3.00;;
7571;SDS011;3827;49.928;8.548;2024-02-21T12:22:30;6.80;;;2.95;;
7571;SDS011;3827;49.928;8.548;2024-02-21T12:24:58;7.50;;;3.35;;
7571;SDS011;3827;49.928;8.548;2024-02-21T12:27:25;6.47;;;2.80;;
7571;SDS011;3827;49.928;8.548;2024-02-21T12:29:52;6.93;;;3.15;;
7571;SDS011;3827;49.928;8.548;2024-02-21T12:32:19;5.72;;;3.42;;
7571;SDS011;3827;49.928;8.548;2024-02-21T12:34:45;6.95;;;2.75;;
7571;SDS011;3827;49.928;8.548;2024-02-21T12:37:12;6.60;;;3.40;;
7571;SDS011;3827;49.928;8.548;2024-02-21T12:39:42;6.90;;;3.20;;
7571;SDS011;3827;49.928;8.548;2024-02-21T12:42:09;5.55;;;2.60;;
7571;SDS011;3827;49.928;8.548;2024-02-21T12:44:37;6.43;;;2.72;;
7571;SDS011;3827;49.928;8.548;2024-02-21T12:47:04;6.68;;;3.00;;
7571;SDS011;3827;49.928;8.548;2024-02-21T12:49:31;7.03;;;2.90;;
7571;SDS011;3827;49.928;8.548;2024-02-21T12:51:57;6.72;;;2.80;;
7571;SDS011;3827;49.928;8.548;2024-02-21T12:54:24;6.80;;;2.80;;
7571;SDS011;3827;49.928;8.548;2024-02-21T12:56:52;6.55;;;2.72;;
7571;SDS011;3827;49.928;8.548;2024-02-21T12:59:19;8.98;;;3.25;;
7571;SDS011;3827;49.928;8.548;2024-02-21T13:01:46;6.63;;;2.90;;
7571;SDS011;3827;49.928;8.548;2024-02-21T13:04:13;5.80;;;3.00;;
7571;SDS011;3827;49.928;8.548;2024-02-21T13:06:40;9.32;;;2.95;;
7571;SDS011;3827;49.928;8.548;2024-02-21T13:09:06;5.93;;;2.80;;
7571;SDS011;3827;49.928;8.548;2024-02-21T13:11:36;8.45;;;3.05;;
7571;SDS011;3827;49.928;8.548;2024-02-21T13:14:04;5.57;;;2.72;;
7571;SDS011;3827;49.928;8.548;2024-02-21T13:16:31;7.63;;;2.80;;
7571;SDS011;3827;49.928;8.548;2024-02-21T13:18:59;6.72;;;2.60;;
7571;SDS011;3827;49.928;8.548;2024-02-21T13:21:26;6.55;;;2.45;;
7571;SDS011;3827;49.928;8.548;2024-02-21T13:23:52;7.95;;;2.80;;
7571;SDS011;3827;49.928;8.548;2024-02-21T13:26:19;6.27;;;3.07;;
7571;SDS011;3827;49.928;8.548;2024-02-21T13:28:46;3.63;;;2.17;;
7571;SDS011;3827;49.928;8.548;2024-02-21T13:31:14;8.25;;;3.00;;
7571;SDS011;3827;49.928;8.548;2024-02-21T13:33:42;5.80;;;2.70;;
7571;SDS011;3827;49.928;8.548;2024-02-21T13:36:09;5.13;;;2.58;;
7571;SDS011;3827;49.928;8.548;2024-02-21T13:38:36;5.22;;;2.72;;
7571;SDS011;3827;49.928;8.548;2024-02-21T13:41:04;5.63;;;2.97;;
7571;SDS011;3827;49.928;8.548;2024-02-21T13:43:31;5.22;;;2.30;;
7571;SDS011;3827;49.928;8.548;2024-02-21T13:45:58;6.83;;;2.70;;
7571;SDS011;3827;49.928;8.548;2024-02-21T13:48:27;4.63;;;2.10;;
7571;SDS011;3827;49.928;8.548;2024-02-21T13:50:55;6.60;;;2.78;;
7571;SDS011;3827;49.928;8.548;2024-02-21T13:53:22;6.03;;;2.45;;
7571;SDS011;3827;49.928;8.548;2024-02-21T13:55:49;6.63;;;2.60;;
7571;SDS011;3827;49.928;8.548;2024-02-21T13:58:16;6.97;;;2.77;;
7571;SDS011;3827;49.928;8.548;2024-02-21T14:00:43;6.47;;;2.40;;
7571;SDS011;3827;49.928;8.548;2024-02-21T14:03:11;6.38;;;2.85;;
7571;SDS011;3827;49.928;8.548;2024-02-21T14:05:39;5.20;;;2.83;;
7571;SDS011;3827;49.928;8.548;2024-02-21T14:08:06;6.10;;;2.35;;
7571;SDS011;3827;49.928;8.548;2024-02-21T14:10:33;5.63;;;3.42;;
7571;SDS011;3827;49.928;8.548;2024-02-21T14:13:00;8.07;;;3.72;;
7571;SDS011;3827;49.928;8.548;2024-02-21T14:15:27;7.30;;;3.30;;
7571;SDS011;3827;49.928;8.548;2024-02-21T14:17:53;8.60;;;2.37;;
7571;SDS011;3827;49.928;8.548;2024-02-21T14:20:21;6.22;;;3.05;;
7571;SDS011;3827;49.928;8.548;2024-02-21T14:22:49;4.93;;;2.42;;
7571;SDS011;3827;49.928;8.548;2024-02-21T14:25:16;6.47;;;2.40;;
7571;SDS011;3827;49.928;8.548;2024-02-21T14:27:42;6.03;;;2.42;;
7571;SDS011;3827;49.928;8.548;2024-02-21T14:30:09;5.30;;;2.40;;
7571;SDS011;3827;49.928;8.548;2024-02-21T14:32:36;7.50;;;2.80;;
7571;SDS011;3827;49.928;8.548;2024-02-21T14:35:03;5.68;;;2.55;;
7571;SDS011;3827;49.928;8.548;2024-02-21T14:37:31;7.13;;;2.45;;
7571;SDS011;3827;49.928;8.548;2024-02-21T14:39:59;5.05;;;2.80;;
7571;SDS011;3827;49.928;8.548;2024-02-21T14:42:26;7.13;;;2.53;;
7571;SDS011;3827;49.928;8.548;2024-02-21T14:44:53;5.80;;;2.40;;
7571;SDS011;3827;49.928;8.548;2024-02-21T14:47:28;7.22;;;2.60;;
7571;SDS011;3827;49.928;8.548;2024-02-21T14:49:56;5.93;;;2.63;;
7571;SDS011;3827;49.928;8.548;2024-02-21T14:52:23;6.03;;;2.63;;
7571;SDS011;3827;49.928;8.548;2024-02-21T14:54:52;6.93;;;2.95;;
7571;SDS011;3827;49.928;8.548;2024-02-21T14:57:20;4.45;;;2.38;;
7571;SDS011;3827;49.928;8.548;2024-02-21T14:59:47;6.00;;;2.40;;
7571;SDS011;3827;49.928;8.548;2024-02-21T15:02:15;5.00;;;2.35;;
7571;SDS011;3827;49.928;8.548;2024-02-21T15:04:41;4.93;;;2.55;;
7571;SDS011;3827;49.928;8.548;2024-02-21T15:07:08;4.43;;;2.17;;